Time;durP1;ratioP1;P1;durP2;ratioP2;P2;SDS_P1;SDS_P2;PMS_P1;PMS_P2;Temp;Humidity;BMP_temperature;BMP_pressure;BME280_temperature;BME280_humidity;BME280_pressure;Samples;Min_cycle;Max_cycle;Signal;HPM_P1;HPM_P2
2022/11/08 00:03:44;;;;;;;;;8.75;8.75;;;;;21.17;58.66;100109.63;5053288;28;45216;-46
2022/11/08 00:14:21;;;;;;;;;11.50;11.50;;;;;21.22;58.32;100082.06;5039966;28;45344;-47
2022/11/08 00:16:47;;;;;;;;;11.50;11.25;;;;;21.23;58.38;100078.47;5038403;28;62475;-46
2022/11/08 00:19:12;;;;;;;;;10.00;9.25;;;;;21.23;58.40;100076.66;5038765;28;62971;-47
2022/11/08 00:21:37;;;;;;;;;12.75;12.00;;;;;21.24;58.29;100070.41;5039301;28;68775;-49
2022/11/08 00:24:03;;;;;;;;;12.50;11.00;;;;;21.26;58.42;100068.56;5054398;28;68558;-45
2022/11/08 00:26:28;;;;;;;;;11.75;11.75;;;;;21.27;58.59;100065.00;5054749;28;68985;-50
2022/11/08 00:28:53;;;;;;;;;16.00;14.25;;;;;21.28;58.57;100060.56;5038807;28;69911;-46
2022/11/08 00:31:19;;;;;;;;;10.75;10.00;;;;;21.29;58.48;100057.00;5039960;28;45598;-47
2022/11/08 00:33:45;;;;;;;;;15.00;12.75;;;;;21.29;58.30;100049.88;5038789;28;45340;-44
2022/11/08 00:36:10;;;;;;;;;12.75;10.25;;;;;21.29;58.23;100049.88;5021814;28;46861;-44
2022/11/08 00:38:35;;;;;;;;;12.50;10.50;;;;;21.30;58.40;100032.16;5039691;28;45339;-45
2022/11/08 00:41:01;;;;;;;;;11.25;10.75;;;;;21.30;58.54;100033.03;5038506;28;45834;-46
2022/11/08 00:43:26;;;;;;;;;14.00;10.50;;;;;21.30;58.58;100025.06;5039587;28;45235;-47
2022/11/08 00:45:52;;;;;;;;;12.00;11.25;;;;;21.32;58.58;100014.38;5039157;28;58813;-47
2022/11/08 00:48:17;;;;;;;;;14.00;10.75;;;;;21.32;58.33;100009.91;5037587;28;45489;-45
2022/11/08 00:50:42;;;;;;;;;15.00;11.00;;;;;21.32;57.84;100004.63;5055171;28;45264;-45
2022/11/08 00:53:08;;;;;;;;;13.00;9.50;;;;;21.33;58.09;99995.72;5038774;28;60712;-45
2022/11/08 00:55:33;;;;;;;;;11.00;11.00;;;;;21.34;57.98;99996.56;5039929;28;57636;-46
2022/11/08 00:57:59;;;;;;;;;10.25;10.00;;;;;21.36;58.09;99992.03;5042563;28;54039;-49
2022/11/08 01:00:24;;;;;;;;;14.00;12.75;;;;;21.35;57.99;99991.19;5041331;28;60905;-48
2022/11/08 01:03:17;;;;;;;;;7.50;6.00;;;;;21.36;58.35;99994.69;5042700;28;45349;-49
2022/11/08 01:05:38;;;;;;;;;9.75;9.75;;;;;21.37;58.11;99992.00;5028341;28;45805;-51
2022/11/08 01:08:03;;;;;;;;;10.25;9.25;;;;;21.38;58.38;99996.38;5041169;28;45874;-48
2022/11/08 01:10:29;;;;;;;;;11.25;10.00;;;;;21.39;58.13;99992.78;5042192;28;45412;-49
2022/11/08 01:12:54;;;;;;;;;11.25;11.25;;;;;21.38;58.05;99979.59;5040925;28;66187;-49
2022/11/08 01:15:20;;;;;;;;;13.50;12.50;;;;;21.40;58.07;99969.75;5023922;28;75298;-47
2022/11/08 01:17:45;;;;;;;;;11.25;10.25;;;;;21.39;58.32;99987.47;5041524;28;63758;-46
2022/11/08 01:20:10;;;;;;;;;10.00;9.75;;;;;21.38;58.48;99982.25;5041738;28;66822;-49
2022/11/08 01:22:36;;;;;;;;;13.25;10.75;;;;;21.37;58.09;99985.81;5042806;28;45263;-47
2022/11/08 01:25:01;;;;;;;;;10.25;9.50;;;;;21.37;58.58;99975.19;5041882;28;66507;-47
2022/11/08 01:27:27;;;;;;;;;12.75;11.00;;;;;21.36;58.14;99969.00;5042582;28;45283;-47
2022/11/08 01:29:52;;;;;;;;;11.00;9.50;;;;;21.37;58.39;99973.41;5057431;28;61323;-48
2022/11/08 01:32:17;;;;;;;;;13.25;11.00;;;;;21.37;58.45;99976.06;5057286;28;64728;-48
2022/11/08 01:34:43;;;;;;;;;9.50;9.50;;;;;21.37;58.40;99973.41;5041399;28;72543;-45
2022/11/08 01:37:08;;;;;;;;;12.50;11.00;;;;;21.39;58.07;99974.19;5041508;28;72007;-44
2022/11/08 01:39:33;;;;;;;;;8.00;8.00;;;;;21.41;58.35;99976.78;5057220;28;65954;-49
2022/11/08 01:41:59;;;;;;;;;10.50;10.00;;;;;21.40;57.92;99967.94;5041287;28;45583;-45
2022/11/08 01:44:24;;;;;;;;;13.00;10.00;;;;;21.42;58.15;99982.00;5040482;28;67714;-46
2022/11/08 01:46:50;;;;;;;;;9.75;8.00;;;;;21.42;58.26;99976.69;5056951;28;64260;-45
2022/11/08 01:49:32;;;;;;;;;16.00;11.50;;;;;21.43;58.20;99970.44;5041517;28;45259;-47
2022/11/08 01:51:58;;;;;;;;;12.25;9.00;;;;;21.43;57.90;99961.63;5030633;28;45600;-46
2022/11/08 01:54:29;;;;;;;;;9.00;9.00;;;;;21.45;57.92;99963.25;5042355;28;46407;-45
2022/11/08 01:56:54;;;;;;;;;10.25;10.25;;;;;21.47;58.01;99962.34;5042218;28;45403;-48
2022/11/08 01:59:19;;;;;;;;;11.00;10.00;;;;;21.47;57.73;99959.69;5041564;28;57262;-45
2022/11/08 02:01:45;;;;;;;;;11.00;10.50;;;;;21.47;58.09;99957.91;5040993;28;45218;-45
2022/11/08 02:04:11;;;;;;;;;10.75;10.25;;;;;21.47;58.07;99957.06;5021564;28;46933;-45
2022/11/08 02:06:36;;;;;;;;;8.25;8.25;;;;;21.48;57.60;99949.00;5022989;28;45336;-47
2022/11/08 02:09:02;;;;;;;;;8.50;7.00;;;;;21.49;57.56;99947.22;5039587;28;69418;-45
2022/11/08 02:11:27;;;;;;;;;8.00;7.00;;;;;21.47;57.58;99939.31;5057663;28;46993;-45
2022/11/08 02:13:53;;;;;;;;;11.25;9.25;;;;;21.49;57.85;99941.91;5040207;28;49467;-43
2022/11/08 02:16:18;;;;;;;;;11.25;9.00;;;;;21.50;57.80;99933.00;5040159;28;58114;-45
2022/11/08 02:18:44;;;;;;;;;9.75;9.75;;;;;21.49;57.51;99928.63;5022626;28;60885;-44
2022/11/08 02:21:22;;;;;;;;;11.00;10.50;;;;;21.49;57.46;99921.50;5041868;28;45278;-45
2022/11/08 02:23:52;;;;;;;;;9.50;9.50;;;;;21.49;57.78;99920.66;5041549;28;45323;-45
2022/11/08 02:26:21;;;;;;;;;11.25;10.25;;;;;21.49;57.62;99905.59;5040805;28;45386;-45
2022/11/08 02:28:47;;;;;;;;;8.25;7.75;;;;;21.50;57.33;99893.16;5040379;28;45297;-47
2022/11/08 02:31:14;;;;;;;;;11.00;9.75;;;;;21.50;57.46;99890.50;5056977;28;45281;-48
2022/11/08 02:33:39;;;;;;;;;13.00;11.25;;;;;21.50;57.58;99886.06;5041279;28;46678;-49
2022/11/08 02:36:05;;;;;;;;;11.50;10.00;;;;;21.50;57.60;99885.19;5041740;28;45209;-48
2022/11/08 02:38:31;;;;;;;;;8.50;8.50;;;;;21.50;57.50;99871.94;5040239;28;45408;-49
2022/11/08 02:40:56;;;;;;;;;11.00;10.00;;;;;21.50;57.09;99866.63;5040590;28;45319;-48
2022/11/08 02:43:22;;;;;;;;;8.00;7.00;;;;;21.50;57.37;99879.91;5039223;28;46274;-45
2022/11/08 02:45:48;;;;;;;;;10.00;9.25;;;;;21.50;57.11;99885.19;5041355;28;45624;-46
2022/11/08 02:48:13;;;;;;;;;6.75;6.50;;;;;21.50;57.24;99871.94;5039703;28;45193;-46
2022/11/08 02:50:39;;;;;;;;;9.75;8.50;;;;;21.50;57.32;99871.94;5041237;28;48591;-49
2022/11/08 02:53:04;;;;;;;;;10.50;9.50;;;;;21.50;57.55;99866.63;5056667;28;45365;-50
2022/11/08 02:55:29;;;;;;;;;9.00;9.00;;;;;21.47;57.71;99865.00;5040445;28;66433;-50
2022/11/08 02:57:55;;;;;;;;;9.00;8.00;;;;;21.47;57.14;99853.50;5041349;28;45938;-45
2022/11/08 03:00:21;;;;;;;;;11.25;7.50;;;;;21.43;57.69;99858.94;5041462;28;45357;-48
2022/11/08 03:02:50;;;;;;;;;11.00;8.25;;;;;21.42;57.14;99854.59;5040771;28;47171;-46
2022/11/08 03:05:16;;;;;;;;;8.50;7.50;;;;;21.45;57.14;99861.53;5030505;28;45244;-50
2022/11/08 03:07:42;;;;;;;;;9.50;7.00;;;;;21.45;57.11;99862.38;5044832;28;45272;-46
2022/11/08 03:10:08;;;;;;;;;10.00;9.25;;;;;21.42;57.44;99859.88;5041137;28;45405;-46
2022/11/08 03:12:33;;;;;;;;;9.50;8.50;;;;;21.43;57.08;99869.56;5055760;28;51847;-47
2022/11/08 03:14:59;;;;;;;;;10.50;8.75;;;;;21.43;57.40;99858.94;5039031;28;64458;-46
2022/11/08 03:17:24;;;;;;;;;8.25;6.50;;;;;21.45;56.92;99859.72;5040189;28;58989;-49
2022/11/08 03:19:49;;;;;;;;;8.00;8.00;;;;;21.44;57.14;99850.03;5039193;28;56494;-49
2022/11/08 03:22:15;;;;;;;;;10.75;7.00;;;;;21.44;57.07;99858.00;5039979;28;70182;-49
2022/11/08 03:24:40;;;;;;;;;6.25;6.25;;;;;21.42;56.65;99874.97;5039655;28;71797;-49
2022/11/08 03:27:05;;;;;;;;;11.75;9.25;;;;;21.42;56.99;99874.97;5040119;28;60423;-46
2022/11/08 03:29:31;;;;;;;;;10.50;8.50;;;;;21.41;56.85;99859.97;5040892;28;45539;-50
2022/11/08 03:31:56;;;;;;;;;7.50;7.50;;;;;21.42;56.91;99867.00;5055178;28;70785;-49
2022/11/08 03:34:22;;;;;;;;;7.50;7.50;;;;;21.41;56.55;99859.97;5040517;28;45326;-49
2022/11/08 03:36:47;;;;;;;;;8.25;8.25;;;;;21.41;56.46;99852.88;5040828;28;45359;-51
2022/11/08 03:39:13;;;;;;;;;12.00;9.00;;;;;21.41;56.43;99859.97;5040212;28;45449;-49
2022/11/08 03:41:38;;;;;;;;;9.00;7.25;;;;;21.40;56.78;99855.59;5040162;28;54305;-51
2022/11/08 03:44:04;;;;;;;;;7.75;7.00;;;;;21.40;56.68;99844.97;5055999;28;45414;-49
2022/11/08 03:46:29;;;;;;;;;6.75;6.75;;;;;21.40;56.85;99843.19;5039307;28;45281;-46
2022/11/08 03:48:55;;;;;;;;;7.25;6.75;;;;;21.41;56.63;99849.34;5039801;28;45412;-46
2022/11/08 03:51:20;;;;;;;;;6.00;5.75;;;;;21.40;56.30;99850.28;5039449;28;71435;-49
2022/11/08 03:53:45;;;;;;;;;6.75;6.75;;;;;21.39;56.88;99843.28;5039984;28;59060;-50
2022/11/08 03:56:11;;;;;;;;;8.50;5.50;;;;;21.41;56.72;99850.22;5055986;28;45900;-48
2022/11/08 03:58:36;;;;;;;;;6.75;6.75;;;;;21.42;56.26;99851.06;5039548;28;62965;-48
2022/11/08 04:01:05;;;;;;;;;7.75;7.50;;;;;21.41;56.09;99852.88;5039180;28;70241;-51
2022/11/08 04:03:31;;;;;;;;;9.00;7.00;;;;;21.41;56.39;99844.91;5040156;28;45253;-47
2022/11/08 04:05:59;;;;;;;;;11.00;9.75;;;;;21.40;56.06;99850.28;5026698;28;45543;-46
2022/11/08 04:08:24;;;;;;;;;8.50;7.00;;;;;21.39;56.25;99852.09;5022210;28;45723;-50
2022/11/08 04:10:53;;;;;;;;;9.75;7.00;;;;;21.40;56.23;99842.31;5039506;28;65469;-48
2022/11/08 04:16:03;;;;;;;;;6.25;5.50;;;;;21.40;56.16;99850.28;5040016;28;45388;-45
2022/11/08 04:21:18;;;;;;;;;7.00;6.75;;;;;21.39;56.19;99843.28;5027251;28;45884;-45
2022/11/08 04:23:43;;;;;;;;;7.50;7.50;;;;;21.39;55.90;99844.13;5039874;28;45318;-46
2022/11/08 04:26:10;;;;;;;;;6.00;6.00;;;;;21.41;56.21;99855.53;5039839;28;52553;-53
2022/11/08 04:28:36;;;;;;;;;6.00;5.00;;;;;21.40;55.79;99850.28;5055007;28;45269;-48
2022/11/08 04:31:10;;;;;;;;;8.25;7.25;;;;;21.41;56.26;99855.53;5054778;28;46257;-50
2022/11/08 04:33:35;;;;;;;;;7.75;6.75;;;;;21.41;55.58;99854.66;5039408;28;45296;-48
2022/11/08 04:36:02;;;;;;;;;7.00;7.00;;;;;21.40;55.47;99842.31;5038277;28;51791;-48
2022/11/08 04:38:29;;;;;;;;;5.50;5.25;;;;;21.39;55.86;99844.13;5038380;28;45176;-48
2022/11/08 04:41:04;;;;;;;;;6.50;6.25;;;;;21.40;55.95;99853.81;5055163;28;46609;-50
2022/11/08 04:43:30;;;;;;;;;4.50;4.50;;;;;21.39;55.70;99846.78;5038357;28;45391;-47
2022/11/08 04:45:59;;;;;;;;;8.75;6.00;;;;;21.39;55.71;99840.63;5038539;28;45468;-48
2022/11/08 04:48:25;;;;;;;;;9.00;7.00;;;;;21.39;55.76;99845.91;5038430;28;45525;-50
2022/11/08 04:50:50;;;;;;;;;5.00;5.00;;;;;21.40;55.86;99844.97;5038135;28;47161;-46
2022/11/08 04:53:15;;;;;;;;;5.00;5.00;;;;;21.39;55.52;99845.91;5038756;28;58903;-46
2022/11/08 04:55:41;;;;;;;;;8.50;7.25;;;;;21.39;55.64;99846.78;5037974;28;57113;-46
2022/11/08 04:58:06;;;;;;;;;9.50;7.50;;;;;21.38;55.26;99842.41;5037028;28;72083;-47
2022/11/08 05:00:32;;;;;;;;;5.25;5.00;;;;;21.38;55.58;99849.53;5038607;28;64142;-48
2022/11/08 05:02:58;;;;;;;;;6.75;6.75;;;;;21.38;55.58;99845.06;5037668;28;50399;-51
2022/11/08 05:05:24;;;;;;;;;5.25;5.25;;;;;21.39;55.33;99840.63;5026533;28;45520;-44
2022/11/08 05:07:49;;;;;;;;;5.25;5.25;;;;;21.38;55.53;99833.59;5025794;28;67693;-48
2022/11/08 05:10:15;;;;;;;;;6.25;5.25;;;;;21.38;55.78;99817.66;5038841;28;63777;-48
2022/11/08 05:12:40;;;;;;;;;4.75;4.50;;;;;21.37;55.85;99830.06;5053937;28;68211;-49
2022/11/08 05:15:06;;;;;;;;;4.25;4.25;;;;;21.38;55.49;99841.56;5039531;28;45595;-47
2022/11/08 05:17:32;;;;;;;;;7.00;7.00;;;;;21.38;55.84;99837.09;5038962;28;45290;-45
2022/11/08 05:25:25;;;;;;;;;5.00;5.00;;;;;21.36;55.88;99844.25;5039435;28;45395;-50
2022/11/08 05:27:50;;;;;;;;;4.50;4.50;;;;;21.36;55.50;99843.41;5038325;28;63045;-48
2022/11/08 05:30:15;;;;;;;;;6.25;6.25;;;;;21.36;55.84;99836.28;5038128;28;72943;-47
2022/11/08 05:32:41;;;;;;;;;6.25;4.00;;;;;21.37;55.85;99843.34;5038028;28;69346;-46
2022/11/08 05:35:06;;;;;;;;;4.75;4.50;;;;;21.37;55.92;99843.34;5038347;28;61080;-47
2022/11/08 05:37:31;;;;;;;;;3.00;3.00;;;;;21.37;55.55;99851.31;5053733;28;65920;-47
2022/11/08 05:39:57;;;;;;;;;7.00;5.25;;;;;21.39;55.90;99841.47;5038134;28;69190;-46
2022/11/08 05:42:22;;;;;;;;;5.75;5.75;;;;;21.40;55.88;99837.03;5039834;28;69750;-46
2022/11/08 05:44:48;;;;;;;;;6.50;6.00;;;;;21.40;55.75;99848.50;5041787;28;54785;-45
2022/11/08 05:47:13;;;;;;;;;5.25;5.25;;;;;21.41;55.64;99836.94;5041858;28;49881;-45
2022/11/08 05:49:38;;;;;;;;;5.75;5.75;;;;;21.40;55.51;99835.22;5039021;28;70059;-42
2022/11/08 05:52:04;;;;;;;;;6.00;6.00;;;;;21.41;55.82;99834.28;5041146;28;45346;-45
2022/11/08 05:54:29;;;;;;;;;5.25;5.25;;;;;21.43;55.76;99834.19;5041282;28;55463;-44
2022/11/08 05:56:54;;;;;;;;;6.50;4.75;;;;;21.42;55.42;99832.50;5042191;28;45469;-46
2022/11/08 05:59:20;;;;;;;;;5.75;5.25;;;;;21.42;55.81;99838.66;5040158;28;59006;-47
2022/11/08 06:01:45;;;;;;;;;5.75;5.75;;;;;21.41;55.40;99831.63;5041170;28;65914;-49
2022/11/08 06:04:11;;;;;;;;;7.00;4.25;;;;;21.43;55.70;99837.72;5037948;28;68348;-45
2022/11/08 06:06:37;;;;;;;;;11.00;5.00;;;;;21.42;55.74;99832.50;5030414;28;45624;-48
2022/11/08 06:09:02;;;;;;;;;5.50;5.50;;;;;21.42;55.42;99840.44;5040250;28;66307;-51
2022/11/08 06:11:28;;;;;;;;;8.50;6.25;;;;;21.45;55.75;99822.56;5040639;28;48133;-46
2022/11/08 06:13:53;;;;;;;;;8.50;6.00;;;;;21.45;55.47;99830.53;5042009;28;45683;-48
2022/11/08 06:16:19;;;;;;;;;6.75;6.25;;;;;21.48;55.74;99839.28;5040175;28;45326;-46
2022/11/08 06:18:45;;;;;;;;;5.00;3.75;;;;;21.48;55.82;99841.94;5040015;28;48510;-45
2022/11/08 06:21:12;;;;;;;;;6.00;6.00;;;;;21.48;55.55;99839.28;5040470;28;45342;-45
2022/11/08 06:23:38;;;;;;;;;5.00;5.00;;;;;21.50;55.90;99837.41;5041287;28;45409;-45
2022/11/08 06:26:03;;;;;;;;;5.50;5.50;;;;;21.50;55.97;99834.75;5016025;28;45281;-45
2022/11/08 06:28:29;;;;;;;;;6.50;5.75;;;;;21.50;55.65;99825.00;5039205;28;45412;-46
2022/11/08 06:30:56;;;;;;;;;5.50;5.25;;;;;21.51;56.06;99824.06;5036555;28;45522;-47
2022/11/08 06:33:22;;;;;;;;;6.25;4.75;;;;;21.51;55.50;99826.72;5031875;28;45499;-44
2022/11/08 06:35:47;;;;;;;;;5.00;5.00;;;;;21.53;56.17;99834.59;5027489;28;47667;-48
2022/11/08 06:38:12;;;;;;;;;5.25;5.25;;;;;21.53;56.21;99831.94;5043049;28;46104;-45
2022/11/08 06:40:38;;;;;;;;;7.00;6.25;;;;;21.53;55.96;99842.56;5028316;28;62403;-49
2022/11/08 06:43:04;;;;;;;;;3.75;3.75;;;;;21.53;55.96;99853.19;5033617;28;45436;-46
2022/11/08 06:45:29;;;;;;;;;5.75;5.00;;;;;21.54;56.23;99854.91;5040978;28;45255;-48
2022/11/08 06:48:01;;;;;;;;;7.00;5.50;;;;;21.53;55.83;99864.66;5037889;28;58041;-49
2022/11/08 06:50:27;;;;;;;;;6.25;5.00;;;;;21.53;56.02;99879.72;5034948;28;45402;-45
2022/11/08 06:53:03;;;;;;;;;7.00;5.75;;;;;21.54;55.87;99870.81;5037750;28;45437;-48
2022/11/08 06:55:29;;;;;;;;;9.50;7.00;;;;;21.54;56.33;99861.06;5040704;28;45683;-48
2022/11/08 06:57:54;;;;;;;;;7.25;6.00;;;;;21.57;56.14;99870.69;5040419;28;46285;-47
2022/11/08 07:00:20;;;;;;;;;5.25;5.00;;;;;21.58;56.53;99853.81;5040944;28;47830;-46
2022/11/08 07:02:54;;;;;;;;;6.00;6.00;;;;;21.60;56.08;99867.88;5034895;28;45591;-46
2022/11/08 07:05:20;;;;;;;;;9.00;7.00;;;;;21.61;55.94;99862.47;5032686;28;51094;-46
2022/11/08 07:07:50;;;;;;;;;7.75;6.00;;;;;21.61;56.02;99859.81;5032845;28;46046;-47
2022/11/08 07:10:16;;;;;;;;;7.75;6.00;;;;;21.62;56.50;99873.97;5036179;28;45496;-48
2022/11/08 07:12:41;;;;;;;;;5.50;5.00;;;;;21.64;56.67;99872.13;5039111;28;45358;-47
2022/11/08 07:15:07;;;;;;;;;4.50;4.50;;;;;21.64;56.39;99861.50;5039281;28;59992;-45
2022/11/08 07:17:32;;;;;;;;;5.25;4.75;;;;;21.65;56.08;99860.56;5038456;28;47141;-49
2022/11/08 07:19:58;;;;;;;;;8.25;5.75;;;;;21.67;56.17;99875.47;5038912;28;61382;-45
2022/11/08 07:22:23;;;;;;;;;4.75;4.00;;;;;21.72;55.87;99886.72;5039935;28;69306;-49
2022/11/08 07:24:48;;;;;;;;;6.75;5.00;;;;;21.78;55.09;99885.53;5036847;28;45373;-46
2022/11/08 07:27:14;;;;;;;;;6.33;5.00;;;;;21.84;55.28;99874.59;5040048;28;45937;-47
2022/11/08 07:29:39;;;;;;;;;4.50;4.50;;;;;21.88;55.10;99862.88;5038950;28;45302;-48
2022/11/08 07:32:05;;;;;;;;;7.50;5.00;;;;;21.93;54.75;99862.66;5034012;28;65547;-46
2022/11/08 07:34:31;;;;;;;;;5.75;5.75;;;;;21.96;54.86;99855.38;5037143;28;57966;-48
2022/11/08 07:36:56;;;;;;;;;5.75;4.00;;;;;22.00;54.78;99882.66;5039461;28;46555;-46
2022/11/08 07:39:21;;;;;;;;;6.50;4.75;;;;;22.02;54.97;99881.63;5036036;28;57437;-47
2022/11/08 07:41:47;;;;;;;;;6.00;5.00;;;;;22.06;54.70;99884.13;5020276;28;45346;-47
2022/11/08 07:44:12;;;;;;;;;6.00;4.00;;;;;22.08;54.73;99887.63;5034303;28;63429;-50
2022/11/08 07:46:38;;;;;;;;;7.75;4.50;;;;;22.11;53.83;99890.09;5035130;28;47946;-46
2022/11/08 07:49:03;;;;;;;;;4.25;4.00;;;;;22.13;54.04;99885.56;5016918;28;45438;-45
2022/11/08 07:51:29;;;;;;;;;6.00;5.00;;;;;22.15;54.10;99881.00;5019469;28;56040;-50
2022/11/08 07:53:54;;;;;;;;;7.50;5.50;;;;;22.17;53.66;99877.38;5011722;28;45659;-47
2022/11/08 07:56:19;;;;;;;;;8.50;6.25;;;;;22.19;54.01;99871.97;5001275;28;47226;-50
2022/11/08 07:58:45;;;;;;;;;7.75;6.50;;;;;22.22;53.43;99880.63;5018035;28;67685;-45
2022/11/08 08:01:10;;;;;;;;;8.50;4.25;;;;;22.26;53.75;99874.22;5017178;28;68947;-48
2022/11/08 08:03:36;;;;;;;;;4.50;4.50;;;;;22.28;53.24;99893.59;5018404;28;45259;-47
2022/11/08 08:06:01;;;;;;;;;7.75;7.25;;;;;22.29;53.36;99884.69;5018622;28;46345;-47
2022/11/08 08:08:27;;;;;;;;;6.75;5.50;;;;;22.31;52.67;99886.41;5019082;28;45679;-47
2022/11/08 08:10:56;;;;;;;;;5.00;4.50;;;;;22.33;53.20;99876.53;5020020;28;45341;-45
2022/11/08 08:13:21;;;;;;;;;5.50;4.75;;;;;22.34;52.73;99871.16;5019438;28;46783;-49
2022/11/08 08:15:46;;;;;;;;;6.50;5.00;;;;;22.35;53.18;99875.53;5023557;28;45334;-47
2022/11/08 08:18:12;;;;;;;;;4.25;4.25;;;;;22.36;52.72;99874.59;5019594;28;45442;-49
2022/11/08 08:20:38;;;;;;;;;6.25;3.75;;;;;22.37;52.35;99862.16;5018203;28;45393;-45
2022/11/08 08:23:03;;;;;;;;;5.00;5.00;;;;;22.39;52.26;99865.59;5018419;28;45519;-49
2022/11/08 08:25:30;;;;;;;;;5.50;5.00;;;;;22.41;52.27;99848.59;5019197;28;46224;-48
2022/11/08 08:27:56;;;;;;;;;6.50;4.75;;;;;22.48;52.40;99854.44;5019769;28;45351;-45
2022/11/08 08:30:22;;;;;;;;;5.25;5.25;;;;;22.53;52.28;99845.28;5018005;28;45551;-48
2022/11/08 08:32:47;;;;;;;;;4.00;4.00;;;;;22.57;51.91;99843.31;5018406;28;46135;-46
2022/11/08 08:35:13;;;;;;;;;3.75;3.75;;;;;22.60;51.75;99837.84;5017636;28;45464;-46
2022/11/08 08:37:39;;;;;;;;;5.00;3.00;;;;;22.61;51.54;99839.56;5017289;28;45560;-45
2022/11/08 08:40:05;;;;;;;;;5.00;5.00;;;;;22.66;51.53;99852.59;5018785;28;45302;-44
2022/11/08 08:42:33;;;;;;;;;3.50;3.25;;;;;22.68;51.54;99875.53;5019834;28;45523;-48
2022/11/08 08:44:59;;;;;;;;;5.50;4.25;;;;;22.71;50.70;99871.84;5002080;28;45366;-45
2022/11/08 08:47:25;;;;;;;;;6.00;4.50;;;;;22.74;50.67;99861.00;5019203;28;45383;-46
2022/11/08 08:49:50;;;;;;;;;6.00;6.00;;;;;22.76;51.29;99881.28;5018577;28;45429;-48
2022/11/08 08:52:17;;;;;;;;;4.00;3.50;;;;;22.78;50.63;99881.19;5022797;28;45440;-47
2022/11/08 08:54:42;;;;;;;;;8.00;4.00;;;;;22.79;51.05;99869.59;4989439;28;45472;-48
2022/11/08 08:57:08;;;;;;;;;5.00;4.75;;;;;22.79;51.02;99889.09;5022746;28;45211;-52
2022/11/08 08:59:34;;;;;;;;;6.00;5.00;;;;;22.81;50.69;99886.34;5002488;28;45391;-47
2022/11/08 09:02:00;;;;;;;;;4.00;3.00;;;;;22.82;50.45;99882.72;5021814;28;45172;-48
2022/11/08 09:04:27;;;;;;;;;5.50;4.75;;;;;22.83;50.08;99881.78;5002108;28;46378;-49
2022/11/08 09:06:53;;;;;;;;;6.50;4.75;;;;;22.85;50.16;99890.59;5004259;28;45836;-46
2022/11/08 09:09:19;;;;;;;;;6.00;4.75;;;;;22.86;50.48;99886.13;5020709;28;45417;-48
2022/11/08 09:11:44;;;;;;;;;3.00;3.00;;;;;22.86;50.05;99883.47;5004468;28;45572;-51
2022/11/08 09:14:10;;;;;;;;;4.25;4.00;;;;;22.85;50.57;99882.63;4985110;28;46745;-50
2022/11/08 09:16:36;;;;;;;;;5.75;5.00;;;;;22.83;49.84;99879.97;5002884;28;45243;-46
2022/11/08 09:19:01;;;;;;;;;4.25;3.75;;;;;22.82;50.05;99870.28;4989191;28;45374;-49
2022/11/08 09:21:27;;;;;;;;;4.00;4.00;;;;;22.84;49.65;99871.09;5005485;28;45505;-45
2022/11/08 09:23:52;;;;;;;;;5.00;4.25;;;;;22.87;49.86;99886.03;5021007;28;61372;-45
2022/11/08 09:26:17;;;;;;;;;5.75;4.25;;;;;22.91;49.47;99890.25;5021763;28;45956;-46
2022/11/08 09:28:43;;;;;;;;;5.25;3.25;;;;;22.92;49.76;99889.28;5022160;28;62517;-46
2022/11/08 09:31:10;;;;;;;;;6.50;4.50;;;;;22.94;49.69;99899.88;5021668;28;45462;-48
2022/11/08 09:33:36;;;;;;;;;3.75;3.75;;;;;22.95;49.87;99893.59;5005436;28;45488;-48
2022/11/08 09:36:02;;;;;;;;;3.25;3.25;;;;;22.94;49.42;99891.91;5021719;28;45283;-44
2022/11/08 09:38:28;;;;;;;;;7.25;5.50;;;;;22.93;49.67;99896.31;5023105;28;45309;-46
2022/11/08 09:41:16;;;;;;;;;4.00;4.00;;;;;22.93;49.56;99891.00;5005338;28;45390;-45
2022/11/08 09:43:58;;;;;;;;;5.00;4.00;;;;;22.92;49.35;99886.63;5021548;28;48279;-46
2022/11/08 09:46:30;;;;;;;;;4.00;3.75;;;;;22.93;49.63;99880.38;5021220;28;45378;-46
2022/11/08 09:48:55;;;;;;;;;5.75;4.25;;;;;22.94;49.25;99889.25;5015344;28;45386;-44
2022/11/08 09:51:22;;;;;;;;;3.50;3.50;;;;;22.93;49.61;99883.03;5020864;28;65952;-45
2022/11/08 09:53:55;;;;;;;;;4.50;4.00;;;;;22.92;49.18;99888.44;5004308;28;48080;-48
2022/11/08 09:56:22;;;;;;;;;3.50;3.00;;;;;22.92;48.95;99883.97;5004577;28;51075;-48
2022/11/08 09:59:00;;;;;;;;;4.50;3.50;;;;;22.92;49.40;99883.97;5022993;28;45469;-49
2022/11/08 10:01:26;;;;;;;;;5.00;4.00;;;;;22.92;49.00;99880.44;5021170;28;45294;-50
2022/11/08 10:03:52;;;;;;;;;4.50;3.25;;;;;22.92;49.06;99891.94;5022680;28;46211;-50
2022/11/08 10:06:30;;;;;;;;;3.00;3.00;;;;;22.91;48.31;99879.59;5022719;28;45288;-47
2022/11/08 10:09:08;;;;;;;;;4.25;3.75;;;;;22.92;48.68;99881.31;5021197;28;45400;-50
2022/11/08 10:12:02;;;;;;;;;5.75;4.00;;;;;22.93;49.10;99888.34;5022746;28;45449;-50
2022/11/08 10:14:53;;;;;;;;;6.75;5.25;;;;;22.94;48.46;99890.09;5003585;28;46428;-49
2022/11/08 10:17:49;;;;;;;;;6.25;5.75;;;;;22.93;48.84;99888.34;4989075;28;45226;-51
2022/11/08 10:20:35;;;;;;;;;3.50;2.50;;;;;22.94;49.10;99882.09;5020350;28;45327;-48
2022/11/08 10:23:06;;;;;;;;;3.50;3.50;;;;;22.92;48.31;99880.44;5020642;28;45354;-48
2022/11/08 10:25:37;;;;;;;;;5.00;5.00;;;;;22.94;48.73;99898.06;5020108;28;47152;-48
2022/11/08 10:28:03;;;;;;;;;5.00;4.25;;;;;22.95;48.40;99886.47;5019458;28;45474;-47
2022/11/08 10:30:35;;;;;;;;;4.25;4.25;;;;;22.96;48.72;99890.84;5019235;28;59400;-50
2022/11/08 10:33:01;;;;;;;;;4.00;4.00;;;;;22.94;48.91;99895.41;5019676;28;48211;-48
2022/11/08 10:36:05;;;;;;;;;6.00;4.00;;;;;22.93;48.74;99885.69;5004065;28;45893;-48
2022/11/08 10:38:38;;;;;;;;;4.00;2.75;;;;;22.93;48.70;99882.16;5018901;28;45498;-46
2022/11/08 10:41:22;;;;;;;;;4.00;2.50;;;;;22.92;49.01;99885.78;5020369;28;45275;-49
2022/11/08 10:44:00;;;;;;;;;4.25;3.00;;;;;22.92;48.61;99883.13;5020677;28;45255;-47
2022/11/08 10:46:52;;;;;;;;;4.25;3.25;;;;;22.92;48.32;99877.78;5020391;28;46459;-48
2022/11/08 10:49:32;;;;;;;;;3.75;3.25;;;;;22.91;49.08;99863.63;5018442;28;45310;-46
2022/11/08 10:52:21;;;;;;;;;6.00;4.75;;;;;22.92;48.68;99876.00;5002370;28;45319;-47
2022/11/08 10:54:51;;;;;;;;;5.00;3.50;;;;;22.94;48.67;99883.91;5019451;28;46004;-45
2022/11/08 10:57:24;;;;;;;;;4.00;4.00;;;;;22.95;48.60;99877.63;5020474;28;46091;-49
2022/11/08 10:59:49;;;;;;;;;4.00;3.00;;;;;22.95;48.23;99870.53;5003239;28;45245;-47
2022/11/08 11:02:50;;;;;;;;;5.00;5.00;;;;;22.94;49.10;99866.16;5021166;28;45262;-44
2022/11/08 11:08:03;;;;;;;;;6.00;4.00;;;;;22.90;49.62;99856.59;5014842;28;75206;-49
2022/11/08 11:10:36;;;;;;;;;5.25;3.75;;;;;22.89;49.01;99862.00;5019374;28;45418;-45
2022/11/08 11:13:03;;;;;;;;;4.00;4.00;;;;;22.87;49.26;99862.09;5017798;28;45325;-47
2022/11/08 11:15:37;;;;;;;;;5.00;4.00;;;;;22.84;49.28;99862.22;5020725;28;45308;-46
2022/11/08 11:18:04;;;;;;;;;3.75;3.00;;;;;22.81;49.91;99873.91;5006932;28;46321;-49
2022/11/08 11:20:30;;;;;;;;;3.00;3.00;;;;;22.78;50.08;99865.25;5000001;28;45271;-51
2022/11/08 11:22:55;;;;;;;;;6.00;3.25;;;;;22.77;49.51;99866.19;5017151;28;45538;-46
2022/11/08 11:25:22;;;;;;;;;5.00;4.00;;;;;22.74;49.48;99866.34;5019584;28;45417;-49
2022/11/08 11:27:52;;;;;;;;;5.00;3.00;;;;;22.74;49.95;99850.38;5018553;28;45709;-49
2022/11/08 11:30:31;;;;;;;;;3.00;3.00;;;;;22.70;49.59;99848.84;5019351;28;45217;-48
2022/11/08 11:32:58;;;;;;;;;5.00;3.75;;;;;22.68;50.19;99853.38;5017175;28;45506;-48
2022/11/08 11:35:24;;;;;;;;;5.75;3.00;;;;;22.66;50.34;99861.44;5020590;28;45393;-46
2022/11/08 11:37:50;;;;;;;;;3.00;3.00;;;;;22.64;49.95;99865.97;4984839;28;47006;-47
2022/11/08 11:40:36;;;;;;;;;4.00;4.00;;;;;22.64;49.73;99873.09;5017789;28;69971;-47
2022/11/08 11:43:19;;;;;;;;;4.00;3.50;;;;;22.61;50.16;99870.63;5001627;28;45409;-48
2022/11/08 11:45:54;;;;;;;;;4.75;4.75;;;;;22.58;50.25;99872.47;5018123;28;45326;-44
2022/11/08 11:48:27;;;;;;;;;3.25;2.75;;;;;22.56;49.90;99862.88;5017096;28;46253;-47
2022/11/08 11:50:53;;;;;;;;;5.25;4.00;;;;;22.54;50.34;99865.63;5019710;28;45370;-46
2022/11/08 11:53:23;;;;;;;;;3.00;3.00;;;;;22.54;49.80;99860.31;5018876;28;45303;-44
2022/11/08 11:56:16;;;;;;;;;4.00;2.25;;;;;22.53;50.16;99858.59;5018976;28;45268;-47